Time;durP1;ratioP1;P1;durP2;ratioP2;P2;SDS_P1;SDS_P2;PMS_P1;PMS_P2;Temp;Humidity;BMP_temperature;BMP_pressure;BME280_temperature;BME280_humidity;BME280_pressure;Samples;Min_cycle;Max_cycle;Signal;HPM_P1;HPM_P2
2023/09/28 00:01:54;;;;;;;5.70;3.80;;;;;;;23.90;41.42;95362.50;6034705;28;108900;-70
2023/09/28 00:04:57;;;;;;;5.10;3.90;;;;;;;23.90;41.32;95362.50;6037320;28;108922;-70
2023/09/28 00:08:01;;;;;;;4.57;3.50;;;;;;;23.85;41.64;95355.41;6033443;28;109252;-61
2023/09/28 00:11:06;;;;;;;5.40;3.97;;;;;;;23.89;41.61;95356.38;6024891;28;109240;-70
2023/09/28 00:14:11;;;;;;;4.95;3.85;;;;;;;23.86;41.67;95343.63;6029826;28;109048;-70
2023/09/28 00:17:13;;;;;;;6.60;4.07;;;;;;;23.85;41.64;95343.91;6034903;28;108973;-70
2023/09/28 00:20:18;;;;;;;5.30;3.80;;;;;;;23.86;41.49;95345.53;6015975;28;110429;-69
2023/09/28 00:23:20;;;;;;;7.47;3.88;;;;;;;23.90;41.61;95347.25;6037814;28;108943;-70
2023/09/28 00:26:23;;;;;;;4.75;3.72;;;;;;;23.88;41.85;95338.78;6038395;28;108888;-69
2023/09/28 00:29:28;;;;;;;5.10;4.10;;;;;;;23.86;41.60;95345.53;6023057;28;109046;-69
2023/09/28 00:32:31;;;;;;;5.00;3.80;;;;;;;23.86;41.53;95332.94;6018265;28;109505;-68
2023/09/28 00:35:34;;;;;;;6.60;3.90;;;;;;;23.84;41.65;95337.78;6027933;28;108894;-69
2023/09/28 00:38:36;;;;;;;4.70;3.90;;;;;;;23.85;41.78;95334.03;6030182;28;109181;-70
2023/09/28 00:41:39;;;;;;;5.18;3.97;;;;;;;23.84;41.72;95328.97;6036411;28;108954;-70
2023/09/28 00:44:44;;;;;;;5.20;3.70;;;;;;;23.81;41.69;95335.75;6027270;28;109235;-71
2023/09/28 00:47:49;;;;;;;5.45;4.00;;;;;;;23.78;41.67;95333.69;6035302;28;108953;-69
2023/09/28 00:50:52;;;;;;;4.97;3.90;;;;;;;23.78;41.54;95328.34;6034796;28;108928;-69
2023/09/28 00:53:56;;;;;;;5.13;4.07;;;;;;;23.77;41.55;95328.66;6032592;28;109812;-70
2023/09/28 00:57:00;;;;;;;4.72;3.65;;;;;;;23.76;41.69;95335.88;6031838;28;109009;-70
2023/09/28 01:00:08;;;;;;;5.85;4.05;;;;;;;23.76;41.26;95340.44;6035490;28;110015;-69
2023/09/28 01:03:12;;;;;;;4.47;3.90;;;;;;;23.74;41.61;95338.09;6027144;28;109111;-71
2023/09/28 01:06:15;;;;;;;5.50;4.00;;;;;;;23.75;41.59;95328.19;6021518;28;110322;-70
2023/09/28 01:09:17;;;;;;;4.40;3.40;;;;;;;23.73;41.21;95336.50;6029865;28;109143;-71
2023/09/28 01:12:21;;;;;;;4.90;3.72;;;;;;;23.71;41.42;95330.69;6038544;28;108926;-69
2023/09/28 01:15:24;;;;;;;4.97;3.80;;;;;;;23.72;41.30;95326.91;6038762;28;108929;-69
2023/09/28 01:18:27;;;;;;;5.00;4.07;;;;;;;23.69;41.17;95335.56;6020343;28;108908;-69
2023/09/28 01:21:31;;;;;;;5.72;3.70;;;;;;;23.68;41.72;95336.63;6025617;28;108946;-70
2023/09/28 01:24:35;;;;;;;4.57;3.60;;;;;;;23.69;41.40;95334.75;6040809;28;109217;-70
2023/09/28 01:27:38;;;;;;;4.03;3.60;;;;;;;23.67;41.13;95324.38;6037610;28;109061;-69
2023/09/28 01:30:42;;;;;;;5.68;4.30;;;;;;;23.64;41.44;95325.00;6034467;28;110056;-69
2023/09/28 01:33:45;;;;;;;4.27;3.87;;;;;;;23.69;41.26;95329.41;6029052;28;108825;-69
2023/09/28 01:36:48;;;;;;;4.37;3.60;;;;;;;23.67;41.56;95329.72;6041655;28;109871;-70
2023/09/28 01:39:52;;;;;;;5.68;3.88;;;;;;;23.67;41.64;95323.59;6020844;28;110151;-69
2023/09/28 01:42:55;;;;;;;5.00;3.90;;;;;;;23.70;41.14;95333.69;6040351;28;109440;-70
2023/09/28 01:45:58;;;;;;;6.13;3.97;;;;;;;23.70;41.53;95339.81;6037055;28;109343;-69
2023/09/28 01:49:01;;;;;;;4.45;3.80;;;;;;;23.68;41.37;95333.16;6041270;28;109064;-70
2023/09/28 01:52:03;;;;;;;5.72;4.28;;;;;;;23.65;41.31;95329.22;6023034;28;108945;-70
2023/09/28 01:55:09;;;;;;;5.18;3.70;;;;;;;23.65;41.67;95333.78;6033009;28;108943;-70
2023/09/28 01:58:13;;;;;;;4.90;4.00;;;;;;;23.63;41.42;95331.44;6034927;28;109041;-71
2023/09/28 02:01:22;;;;;;;5.72;4.03;;;;;;;23.60;41.09;95332.84;6026571;28;109211;-69
2023/09/28 02:04:25;;;;;;;4.70;3.80;;;;;;;23.59;41.27;95335.81;6019388;28;108965;-69
2023/09/28 02:07:27;;;;;;;5.38;3.80;;;;;;;23.60;41.18;95340.06;6031358;28;109322;-71
2023/09/28 02:10:32;;;;;;;4.40;4.00;;;;;;;23.54;41.77;95338.63;6037263;28;109425;-70
2023/09/28 02:13:34;;;;;;;4.63;3.92;;;;;;;23.54;41.60;95333.28;6020192;28;110347;-64
2023/09/28 02:16:37;;;;;;;4.95;4.20;;;;;;;23.53;41.35;95329.03;6027596;28;108949;-70
2023/09/28 02:19:40;;;;;;;5.60;3.95;;;;;;;23.53;41.40;95334.38;6033142;28;109068;-70
2023/09/28 02:22:44;;;;;;;5.97;3.80;;;;;;;23.52;41.51;95333.59;6019907;28;108941;-70
2023/09/28 02:25:50;;;;;;;4.97;3.75;;;;;;;23.52;41.54;95338.13;6023253;28;109006;-70
2023/09/28 02:28:52;;;;;;;5.40;4.00;;;;;;;23.52;41.59;95346.16;6027761;28;109305;-69
2023/09/28 02:31:55;;;;;;;4.60;4.10;;;;;;;23.53;41.26;95342.41;6031783;28;109046;-70
2023/09/28 02:34:58;;;;;;;5.22;3.92;;;;;;;23.48;41.38;95339.84;6040545;28;108989;-70
2023/09/28 02:38:01;;;;;;;4.40;4.00;;;;;;;23.49;41.29;95346.75;6030360;28;109025;-69
2023/09/28 02:41:05;;;;;;;4.60;4.03;;;;;;;23.50;41.60;95348.34;6032178;28;109185;-69
2023/09/28 02:44:07;;;;;;;4.25;3.70;;;;;;;23.46;41.47;95347.38;6035372;28;109365;-70
2023/09/28 02:47:11;;;;;;;6.03;3.90;;;;;;;23.54;41.61;95349.31;6030036;28;110249;-70
2023/09/28 02:50:16;;;;;;;5.75;3.80;;;;;;;23.51;41.18;95353.38;6020784;28;109136;-71
2023/09/28 02:53:19;;;;;;;6.57;4.57;;;;;;;23.45;41.27;95346.59;6041166;28;108847;-70
2023/09/28 02:56:24;;;;;;;5.80;4.50;;;;;;;23.42;41.48;95357.91;6037217;28;109225;-69
2023/09/28 02:59:27;;;;;;;5.30;4.43;;;;;;;23.43;41.31;95364.81;6020349;28;109407;-70
2023/09/28 03:02:30;;;;;;;4.55;4.15;;;;;;;23.44;41.59;95369.06;6037361;28;109312;-70
2023/09/28 03:05:33;;;;;;;5.80;4.30;;;;;;;23.32;41.41;95371.50;6035611;28;110114;-69
2023/09/28 03:08:37;;;;;;;5.20;3.83;;;;;;;23.32;41.32;95362.69;6025440;28;109459;-72
2023/09/28 03:11:41;;;;;;;6.47;4.00;;;;;;;23.39;40.98;95363.06;6024866;28;109922;-70
2023/09/28 03:14:44;;;;;;;8.35;4.50;;;;;;;23.35;40.96;95360.19;6034083;28;110212;-71
2023/09/28 03:17:47;;;;;;;5.82;4.10;;;;;;;23.37;41.42;95363.38;6026306;28;108965;-58
2023/09/28 03:20:50;;;;;;;5.20;4.10;;;;;;;23.36;41.39;95364.47;6039420;28;108970;-58
2023/09/28 03:23:53;;;;;;;6.10;3.60;;;;;;;23.14;41.52;95362.56;6025622;28;109218;-60
2023/09/28 03:26:57;;;;;;;7.60;4.30;;;;;;;23.17;41.60;95363.81;6020602;28;108950;-61
2023/09/28 03:30:14;;;;;;;8.25;5.43;;;;;;;23.12;41.26;95359.41;6035876;28;108932;-62
2023/09/28 03:33:17;;;;;;;7.05;3.97;;;;;;;23.01;41.58;95358.84;6024479;28;108948;-63
2023/09/28 03:36:19;;;;;;;6.07;4.20;;;;;;;23.01;41.56;95358.06;6019528;28;109122;-62
2023/09/28 03:39:23;;;;;;;5.90;3.90;;;;;;;23.11;41.41;95363.16;6032343;28;108922;-60
2023/09/28 03:42:27;;;;;;;6.45;4.55;;;;;;;23.25;40.89;95358.56;6037643;28;109082;-61
2023/09/28 03:45:30;;;;;;;10.07;3.80;;;;;;;23.13;41.08;95360.19;6027785;28;108941;-62
2023/09/28 03:48:34;;;;;;;7.40;4.10;;;;;;;22.83;41.41;95365.16;6040426;28;108881;-62
2023/09/28 03:51:37;;;;;;;8.90;3.92;;;;;;;22.66;41.63;95359.69;6040342;28;108880;-63
2023/09/28 03:54:40;;;;;;;9.07;4.60;;;;;;;22.77;41.74;95357.59;6034928;28;109288;-62
2023/09/28 03:57:45;;;;;;;7.05;4.10;;;;;;;22.83;41.37;95362.50;6028605;28;108864;-62
2023/09/28 04:00:48;;;;;;;7.30;4.20;;;;;;;23.03;41.19;95363.13;6039211;28;108977;-63
2023/09/28 04:03:53;;;;;;;6.43;4.07;;;;;;;23.14;40.75;95362.56;6039387;28;108931;-63
2023/09/28 04:06:56;;;;;;;7.75;4.50;;;;;;;23.15;40.71;95361.47;6019695;28;108954;-64
2023/09/28 04:09:59;;;;;;;5.30;3.90;;;;;;;23.15;42.85;95364.13;6025704;28;109545;-64
2023/09/28 04:13:04;;;;;;;9.70;4.40;;;;;;;23.11;41.69;95363.16;6035351;28;108995;-68
2023/09/28 04:16:07;;;;;;;8.63;4.43;;;;;;;23.05;41.10;95360.94;6031142;28;108905;-63
2023/09/28 04:19:10;;;;;;;7.47;4.60;;;;;;;23.11;41.09;95359.72;6028714;28;109200;-62
2023/09/28 04:22:14;;;;;;;7.20;4.00;;;;;;;23.19;41.11;95361.66;6037997;28;108899;-62
2023/09/28 04:25:18;;;;;;;6.90;4.10;;;;;;;23.10;40.76;95369.59;6040000;28;109347;-63
2023/09/28 04:28:23;;;;;;;5.87;4.30;;;;;;;23.06;40.72;95365.19;6038974;28;109055;-63
2023/09/28 04:31:26;;;;;;;8.48;4.07;;;;;;;23.00;41.00;95367.16;6029119;28;109791;-62
2023/09/28 04:34:30;;;;;;;8.10;3.80;;;;;;;23.00;40.63;95372.50;6039933;28;109088;-62
2023/09/28 04:37:33;;;;;;;5.80;3.70;;;;;;;23.06;40.43;95376.66;6039184;28;108882;-62
2023/09/28 04:40:37;;;;;;;6.23;3.80;;;;;;;23.07;40.54;95375.56;6037816;28;108947;-65
2023/09/28 04:43:42;;;;;;;6.72;4.00;;;;;;;23.00;40.11;95367.94;6031787;28;109241;-62
2023/09/28 04:46:45;;;;;;;6.03;4.00;;;;;;;22.99;40.42;95382.38;6039557;28;108878;-62
2023/09/28 04:49:48;;;;;;;6.75;4.00;;;;;;;22.94;40.36;95390.53;6039232;28;108918;-61
2023/09/28 04:52:52;;;;;;;6.30;3.80;;;;;;;22.97;40.62;95389.91;6029182;28;109864;-62
2023/09/28 04:55:55;;;;;;;6.85;4.30;;;;;;;22.91;40.42;95385.78;6032053;28;109081;-63
2023/09/28 04:59:00;;;;;;;9.25;4.30;;;;;;;22.89;41.10;95393.31;6024003;28;109060;-63
2023/09/28 05:02:03;;;;;;;6.90;3.70;;;;;;;22.86;40.42;95395.81;6042921;28;109194;-61
2023/09/28 05:05:07;;;;;;;4.85;3.80;;;;;;;22.78;40.85;95399.97;6032540;28;109019;-62
2023/09/28 05:08:12;;;;;;;6.40;4.30;;;;;;;22.79;40.78;95404.22;6043143;28;109122;-62
2023/09/28 05:11:15;;;;;;;8.77;4.80;;;;;;;22.86;40.51;95401.94;6042687;28;109302;-62
2023/09/28 05:14:24;;;;;;;6.93;4.07;;;;;;;22.92;40.36;95395.38;6042764;28;109011;-61
2023/09/28 05:17:27;;;;;;;4.80;3.33;;;;;;;22.96;40.67;95400.91;6032233;28;108938;-61
2023/09/28 05:20:31;;;;;;;6.70;3.95;;;;;;;23.04;40.55;95407.41;6043031;28;108907;-61
2023/09/28 05:23:34;;;;;;;6.25;3.80;;;;;;;23.05;40.26;95401.75;6042695;28;108909;-59
2023/09/28 05:26:37;;;;;;;7.38;4.00;;;;;;;22.99;40.22;95408.28;6036559;28;108895;-59
2023/09/28 05:29:42;;;;;;;7.18;3.85;;;;;;;22.95;40.44;95405.44;6037446;28;109104;-60
2023/09/28 05:32:45;;;;;;;6.70;3.53;;;;;;;22.92;40.35;95405.28;6042490;28;108925;-60
2023/09/28 05:35:48;;;;;;;6.68;3.40;;;;;;;22.90;40.69;95402.13;6042426;28;108906;-59
2023/09/28 05:38:51;;;;;;;6.82;4.10;;;;;;;22.92;40.53;95407.94;6032041;28;110037;-65
2023/09/28 05:41:56;;;;;;;6.47;4.25;;;;;;;22.94;41.04;95401.19;6042279;28;108966;-64
2023/09/28 05:45:01;;;;;;;7.80;3.83;;;;;;;22.96;40.40;95406.22;6042283;28;108949;-64
2023/09/28 05:48:05;;;;;;;5.00;3.50;;;;;;;22.96;40.72;95412.34;6042429;28;109015;-65
2023/09/28 05:51:08;;;;;;;7.03;3.50;;;;;;;22.97;40.72;95405.94;6032237;28;109241;-64
2023/09/28 05:54:11;;;;;;;7.43;4.20;;;;;;;22.96;41.15;95412.34;6042233;28;109157;-64
2023/09/28 05:57:14;;;;;;;6.07;4.20;;;;;;;22.96;40.46;95415.03;6021871;28;109038;-65
2023/09/28 06:00:19;;;;;;;5.00;4.20;;;;;;;22.99;40.81;95409.09;6026977;28;109810;-64
2023/09/28 06:03:22;;;;;;;7.78;3.90;;;;;;;22.97;41.15;95415.81;6036257;28;108969;-65
2023/09/28 06:06:26;;;;;;;6.00;4.40;;;;;;;22.96;41.12;95416.91;6041268;28;108917;-65
2023/09/28 06:09:29;;;;;;;6.70;4.80;;;;;;;22.98;41.02;95412.06;6041834;28;109208;-65
2023/09/28 06:12:32;;;;;;;6.00;4.03;;;;;;;23.00;40.73;95421.34;6031370;28;108919;-64
2023/09/28 06:15:36;;;;;;;5.80;4.20;;;;;;;23.03;40.80;95421.84;6041599;28;108977;-65
2023/09/28 06:18:41;;;;;;;7.83;4.30;;;;;;;23.02;41.24;95413.06;6041789;28;109414;-64
2023/09/28 06:21:45;;;;;;;7.77;3.90;;;;;;;23.04;40.89;95421.53;6041885;28;109143;-65
2023/09/28 06:24:48;;;;;;;7.35;4.20;;;;;;;23.07;41.40;95420.16;6030275;28;110002;-64
2023/09/28 06:27:51;;;;;;;9.82;4.43;;;;;;;23.09;41.42;95413.41;6041718;28;109128;-65
2023/09/28 06:30:57;;;;;;;6.47;4.07;;;;;;;23.13;40.93;95413.59;6040830;28;108953;-65
2023/09/28 06:34:00;;;;;;;7.90;4.07;;;;;;;23.17;41.50;95415.34;6041857;28;108985;-64
2023/09/28 06:37:04;;;;;;;8.85;4.50;;;;;;;23.17;41.05;95414.56;6031238;28;109105;-65
2023/09/28 06:40:08;;;;;;;6.60;4.28;;;;;;;23.22;41.24;95412.56;6041456;28;108990;-64
2023/09/28 06:43:11;;;;;;;8.50;4.00;;;;;;;23.23;41.35;95414.16;6041997;28;109053;-64
2023/09/28 06:46:16;;;;;;;5.63;4.10;;;;;;;23.26;41.32;95410.06;6034608;28;108974;-62
2023/09/28 06:49:20;;;;;;;10.20;4.60;;;;;;;23.27;41.40;95414.31;6040589;28;108864;-64
2023/09/28 06:52:24;;;;;;;8.47;4.80;;;;;;;23.31;41.41;95417.97;6041663;28;109191;-63
2023/09/28 06:55:27;;;;;;;7.20;4.60;;;;;;;23.35;41.24;95428.84;6041306;28;108986;-63
2023/09/28 06:58:30;;;;;;;5.67;4.40;;;;;;;23.37;40.78;95432.81;6030585;28;109191;-64
2023/09/28 07:01:35;;;;;;;6.90;4.80;;;;;;;23.39;40.66;95437.84;6040561;28;108920;-64
2023/09/28 07:04:38;;;;;;;6.55;4.50;;;;;;;23.40;40.82;95439.44;6040785;28;109060;-65
2023/09/28 07:07:41;;;;;;;6.93;4.47;;;;;;;23.40;40.91;95434.09;6040665;28;108918;-64
2023/09/28 07:10:45;;;;;;;6.53;5.30;;;;;;;23.42;40.98;95447.91;6030187;28;109161;-64
2023/09/28 07:13:49;;;;;;;11.30;8.60;;;;;;;23.42;41.01;95442.56;6041287;28;108867;-64
2023/09/28 07:16:53;;;;;;;14.10;8.57;;;;;;;23.43;41.17;95439.59;6041110;28;108970;-64
2023/09/28 07:19:56;;;;;;;10.73;8.20;;;;;;;23.46;41.45;95448.88;6035717;28;109021;-63
2023/09/28 07:23:00;;;;;;;8.90;7.50;;;;;;;23.48;40.65;95441.34;6035583;28;108887;-63
2023/09/28 07:26:03;;;;;;;10.38;9.15;;;;;;;23.51;41.25;95440.72;6040535;28;108938;-63
2023/09/28 07:29:06;;;;;;;12.68;9.38;;;;;;;23.53;40.85;95447.38;6040557;28;108918;-63
2023/09/28 07:32:10;;;;;;;10.20;9.20;;;;;;;23.57;40.97;95448.34;6029647;28;110824;-63
2023/09/28 07:35:14;;;;;;;12.30;11.00;;;;;;;23.58;41.24;95441.09;6040658;28;109077;-64
2023/09/28 07:38:18;;;;;;;12.50;11.20;;;;;;;23.58;41.36;95446.44;6040555;28;109387;-64
2023/09/28 07:41:21;;;;;;;10.98;9.77;;;;;;;23.68;41.13;95443.50;6040738;28;108933;-63
2023/09/28 07:44:24;;;;;;;12.70;11.50;;;;;;;23.77;41.13;95436.34;6030235;28;108986;-64
2023/09/28 07:47:29;;;;;;;15.10;12.63;;;;;;;23.83;41.31;95440.44;6040954;28;109000;-64
2023/09/28 07:50:32;;;;;;;13.25;11.70;;;;;;;23.86;41.34;95439.88;6040305;28;109277;-63
2023/09/28 07:53:36;;;;;;;12.70;11.60;;;;;;;23.82;40.56;95430.06;6040812;28;109008;-64
2023/09/28 07:56:39;;;;;;;14.35;12.52;;;;;;;23.82;40.78;95432.75;6017265;28;111781;-63
2023/09/28 07:59:42;;;;;;;12.20;11.17;;;;;;;23.86;41.02;95431.84;6028959;28;108999;-60
2023/09/28 08:02:46;;;;;;;13.30;12.10;;;;;;;23.88;41.26;95437.66;6039398;28;109179;-60
2023/09/28 08:05:49;;;;;;;15.70;14.20;;;;;;;23.88;40.93;95437.66;6030622;28;109230;-63
2023/09/28 08:08:54;;;;;;;12.90;11.60;;;;;;;23.92;41.06;95434.38;6038939;28;108960;-61
2023/09/28 08:11:58;;;;;;;12.10;10.90;;;;;;;24.02;40.65;95434.91;6040103;28;109015;-61
2023/09/28 08:15:05;;;;;;;11.90;10.70;;;;;;;24.10;40.76;95431.50;6039964;28;109079;-61
2023/09/28 08:18:11;;;;;;;11.60;10.50;;;;;;;24.15;40.31;95436.69;6028800;28;108830;-61
2023/09/28 08:21:14;;;;;;;11.20;10.10;;;;;;;24.13;40.41;95440.78;6039994;28;108977;-62
2023/09/28 08:24:17;;;;;;;10.50;9.50;;;;;;;24.10;40.02;95430.69;6039840;28;109131;-61
2023/09/28 08:27:25;;;;;;;9.57;8.63;;;;;;;24.09;40.25;95434.47;6020956;28;108939;-61
2023/09/28 08:30:28;;;;;;;9.15;8.35;;;;;;;24.09;40.03;95427.25;6022389;28;109024;-61
2023/09/28 08:33:33;;;;;;;8.73;7.82;;;;;;;24.10;40.15;95426.16;6039038;28;109220;-61
2023/09/28 08:36:36;;;;;;;9.00;8.10;;;;;;;24.12;39.96;95423.16;6040016;28;109185;-60
2023/09/28 08:39:39;;;;;;;8.98;8.10;;;;;;;24.14;40.03;95427.09;6034378;28;108916;-61
2023/09/28 08:42:44;;;;;;;8.77;7.88;;;;;;;24.17;39.63;95415.00;6034481;28;108927;-61
2023/09/28 08:45:52;;;;;;;8.45;7.65;;;;;;;24.23;39.89;95424.47;6040040;28;108903;-62
2023/09/28 08:49:00;;;;;;;9.73;8.48;;;;;;;24.29;40.06;95417.88;6039316;28;108989;-61
2023/09/28 08:52:04;;;;;;;9.53;8.53;;;;;;;24.36;39.82;95409.38;6028433;28;109486;-61
2023/09/28 08:55:09;;;;;;;9.38;8.57;;;;;;;24.39;39.96;95412.25;6039672;28;109023;-61
2023/09/28 08:58:13;;;;;;;9.80;8.80;;;;;;;24.46;39.83;95409.09;6039700;28;109062;-61
2023/09/28 09:01:18;;;;;;;9.48;8.68;;;;;;;24.52;39.40;95402.50;6039762;28;108960;-61
2023/09/28 09:04:23;;;;;;;9.10;8.30;;;;;;;24.61;39.48;95411.34;6027741;28;108981;-61
2023/09/28 09:07:28;;;;;;;9.40;8.40;;;;;;;24.68;39.34;95398.28;6039719;28;109012;-61
2023/09/28 09:10:31;;;;;;;9.00;8.20;;;;;;;24.72;39.46;95403.84;6039897;28;108901;-66
2023/09/28 09:13:34;;;;;;;8.25;7.45;;;;;;;24.75;39.40;95397.84;6034902;28;109030;-65
2023/09/28 09:16:37;;;;;;;8.30;7.55;;;;;;;24.83;39.34;95402.41;6033678;28;109030;-64
2023/09/28 09:19:42;;;;;;;8.52;7.63;;;;;;;24.87;39.24;95402.59;6038870;28;108995;-64
2023/09/28 09:22:46;;;;;;;8.13;7.33;;;;;;;24.95;38.87;95397.22;6039101;28;109260;-65
2023/09/28 09:26:03;;;;;;;7.85;7.05;;;;;;;24.99;39.33;95400.03;6022004;28;108919;-64
2023/09/28 09:29:07;;;;;;;7.63;7.00;;;;;;;25.00;38.82;95388.22;6018379;28;108848;-64
2023/09/28 09:32:10;;;;;;;7.90;7.10;;;;;;;25.03;38.85;95393.75;6038739;28;109204;-64
2023/09/28 09:35:16;;;;;;;6.87;6.20;;;;;;;25.05;39.07;95388.88;6037962;28;108940;-65
2023/09/28 09:38:24;;;;;;;7.70;7.00;;;;;;;25.11;38.59;95391.38;6029334;28;109193;-65
2023/09/28 09:41:29;;;;;;;7.55;6.85;;;;;;;25.09;38.93;95392.50;6041339;28;108959;-65
2023/09/28 09:44:32;;;;;;;7.53;6.30;;;;;;;24.97;39.24;95384.31;6042701;28;109203;-68
2023/09/28 09:47:36;;;;;;;10.10;6.40;;;;;;;25.07;39.00;95385.88;6037867;28;109329;-64
2023/09/28 09:50:41;;;;;;;8.40;6.37;;;;;;;25.19;39.10;95380.66;6036603;28;108945;-65
2023/09/28 09:53:45;;;;;;;6.50;5.90;;;;;;;25.21;38.84;95385.72;6042697;28;109073;-65
2023/09/28 09:56:50;;;;;;;11.07;9.60;;;;;;;25.21;38.92;95373.09;6043222;28;108852;-65
2023/09/28 09:59:54;;;;;;;10.10;9.10;;;;;;;25.26;38.84;95369.47;6031516;28;109065;-66
2023/09/28 10:03:01;;;;;;;12.48;8.93;;;;;;;25.25;38.61;95370.56;6042653;28;108838;-62
2023/09/28 10:06:06;;;;;;;11.73;8.83;;;;;;;25.23;38.74;95368.22;6040754;28;109446;-63
2023/09/28 10:09:10;;;;;;;10.20;8.68;;;;;;;25.20;38.88;95362.69;6042227;28;108919;-64
2023/09/28 10:12:14;;;;;;;10.27;7.95;;;;;;;25.07;38.99;95357.22;6031946;28;109207;-64
2023/09/28 10:15:18;;;;;;;8.90;7.47;;;;;;;25.02;39.22;95361.91;6042147;28;109002;-64
2023/09/28 10:18:22;;;;;;;8.32;7.07;;;;;;;24.98;39.38;95367.13;6042574;28;108794;-64
2023/09/28 10:21:27;;;;;;;8.55;7.68;;;;;;;24.92;39.36;95348.88;6039103;28;109029;-60
2023/09/28 10:24:32;;;;;;;8.90;8.00;;;;;;;24.90;39.65;95354.56;6036737;28;109164;-61
2023/09/28 10:27:37;;;;;;;10.00;7.90;;;;;;;24.82;39.88;95359.88;6042141;28;108963;-59
2023/09/28 10:30:40;;;;;;;8.25;7.45;;;;;;;24.78;39.90;95362.41;6041878;28;108986;-58
2023/09/28 10:34:00;;;;;;;7.90;7.10;;;;;;;24.76;39.79;95359.28;6032151;28;109739;-59
2023/09/28 10:37:21;;;;;;;8.20;7.40;;;;;;;24.75;40.15;95350.44;6041249;28;108881;-59
2023/09/28 10:40:26;;;;;;;8.00;6.70;;;;;;;24.73;40.35;95352.66;6040974;28;108927;-60
2023/09/28 10:43:51;;;;;;;8.15;6.82;;;;;;;24.71;40.28;95349.50;6041514;28;108875;-59
2023/09/28 10:46:54;;;;;;;6.80;6.10;;;;;;;24.69;40.37;95345.56;6031097;28;109027;-60
2023/09/28 10:50:01;;;;;;;8.73;6.37;;;;;;;24.66;40.51;95351.50;6041654;28;109226;-59
2023/09/28 10:53:08;;;;;;;6.30;5.70;;;;;;;24.63;40.48;95344.13;6040725;28;108925;-59
2023/09/28 10:56:12;;;;;;;7.97;6.20;;;;;;;24.62;40.46;95350.56;6031096;28;108913;-61
2023/09/28 10:59:16;;;;;;;6.30;5.70;;;;;;;24.62;40.53;95342.53;6034041;28;110218;-59
2023/09/28 11:02:19;;;;;;;6.78;5.30;;;;;;;24.54;40.44;95343.34;6018645;28;109305;-65
2023/09/28 11:05:23;;;;;;;8.43;4.95;;;;;;;24.47;40.79;95335.75;6038889;28;109989;-64
2023/09/28 11:08:28;;;;;;;7.60;4.50;;;;;;;24.42;40.67;95330.56;6018675;28;109062;-64
2023/09/28 11:11:31;;;;;;;5.82;4.20;;;;;;;24.27;41.38;95323.00;6041066;28;109063;-65
2023/09/28 11:14:36;;;;;;;5.97;3.90;;;;;;;24.29;41.05;95321.59;6039121;28;109274;-64
2023/09/28 11:17:40;;;;;;;6.15;3.90;;;;;;;24.38;41.40;95326.97;6039804;28;109029;-65
2023/09/28 11:20:43;;;;;;;6.57;3.80;;;;;;;24.31;40.34;95319.38;6026103;28;109079;-65
2023/09/28 11:23:50;;;;;;;5.40;3.93;;;;;;;24.19;41.16;95327.22;6039287;28;109031;-65
2023/09/28 11:26:53;;;;;;;6.95;4.10;;;;;;;24.32;41.06;95326.31;6034283;28;109828;-64
2023/09/28 11:29:57;;;;;;;8.63;5.47;;;;;;;24.36;40.93;95324.59;6035710;28;108920;-65
2023/09/28 11:33:04;;;;;;;6.27;4.47;;;;;;;24.44;40.75;95329.16;6034655;28;109121;-64
2023/09/28 11:36:11;;;;;;;6.72;4.68;;;;;;;24.50;41.03;95322.53;6042837;28;109152;-65
2023/09/28 11:39:15;;;;;;;6.22;4.28;;;;;;;24.66;40.85;95319.41;6042464;28;111035;-64
2023/09/28 11:42:19;;;;;;;7.73;4.90;;;;;;;24.66;40.97;95320.19;6025193;28;109418;-65
2023/09/28 11:45:27;;;;;;;6.68;5.10;;;;;;;24.64;40.88;95322.38;6040016;28;109111;-65
2023/09/28 11:48:31;;;;;;;7.10;5.40;;;;;;;24.65;41.05;95328.53;6037192;28;109065;-66
2023/09/28 11:51:35;;;;;;;7.32;4.82;;;;;;;24.68;40.89;95323.34;6042741;28;108959;-66
2023/09/28 11:54:40;;;;;;;6.70;5.05;;;;;;;24.63;41.32;95320.81;6024166;28;111904;-65
2023/09/28 11:57:44;;;;;;;5.93;4.70;;;;;;;24.63;40.83;95322.72;6042939;28;108961;-66
2023/09/28 12:00:49;;;;;;;6.88;4.50;;;;;;;24.61;41.22;95327.59;6038531;28;108981;-65
2023/09/28 12:03:52;;;;;;;7.70;4.60;;;;;;;24.61;41.05;95323.03;6033827;28;109239;-65
2023/09/28 12:06:56;;;;;;;6.35;4.30;;;;;;;24.66;41.24;95324.75;6033967;28;109039;-65
2023/09/28 12:10:01;;;;;;;5.20;4.60;;;;;;;24.71;40.90;95324.63;6038381;28;108965;-66
2023/09/28 12:13:07;;;;;;;6.60;4.97;;;;;;;24.72;40.68;95321.66;6042166;28;109022;-66
2023/09/28 12:16:10;;;;;;;6.77;5.00;;;;;;;24.73;41.19;95320.53;6031785;28;110668;-66
2023/09/28 12:19:14;;;;;;;7.80;5.50;;;;;;;24.69;41.47;95318.78;6042056;28;108998;-66
2023/09/28 12:22:17;;;;;;;6.93;5.53;;;;;;;24.72;41.18;95318.19;6035906;28;109233;-64
2023/09/28 12:25:23;;;;;;;6.05;5.45;;;;;;;24.72;41.11;95312.84;6040703;28;109007;-65
2023/09/28 12:28:27;;;;;;;6.70;6.10;;;;;;;24.69;41.42;95314.22;6022873;28;108930;-64
2023/09/28 12:31:30;;;;;;;6.15;5.55;;;;;;;24.67;41.54;95315.63;6040979;28;109016;-64
2023/09/28 12:34:33;;;;;;;6.70;6.00;;;;;;;24.67;41.34;95324.44;6038999;28;108983;-65
2023/09/28 12:37:38;;;;;;;7.10;6.40;;;;;;;24.68;41.56;95317.22;6041119;28;109363;-64
2023/09/28 12:40:43;;;;;;;7.60;6.80;;;;;;;24.69;41.58;95313.44;6028502;28;108925;-70
2023/09/28 12:43:46;;;;;;;7.83;6.63;;;;;;;24.72;41.45;95312.84;6038300;28;109217;-70
2023/09/28 12:46:50;;;;;;;7.55;6.35;;;;;;;24.70;41.52;95321.19;6042882;28;108982;-68
2023/09/28 12:49:53;;;;;;;7.10;5.85;;;;;;;24.69;41.58;95314.22;6029792;28;109200;-69
2023/09/28 12:52:56;;;;;;;8.25;6.70;;;;;;;24.70;41.71;95323.84;6034755;28;109080;-71
2023/09/28 12:56:01;;;;;;;8.43;6.00;;;;;;;24.68;41.88;95317.22;6035535;28;109179;-70
2023/09/28 12:59:04;;;;;;;8.00;6.60;;;;;;;24.71;41.81;95322.75;6039608;28;108976;-71
2023/09/28 13:02:08;;;;;;;7.87;6.77;;;;;;;24.72;41.86;95312.84;6033002;28;111823;-71
2023/09/28 13:05:11;;;;;;;8.40;7.22;;;;;;;24.71;41.83;95319.28;6042785;28;108926;-70
2023/09/28 13:08:15;;;;;;;7.28;6.57;;;;;;;24.68;42.21;95323.34;6040843;28;109047;-70
2023/09/28 13:11:20;;;;;;;6.90;6.13;;;;;;;24.70;42.01;95315.03;6037811;28;109656;-71
2023/09/28 13:14:25;;;;;;;7.63;6.32;;;;;;;24.69;41.63;95322.25;6034613;28;109003;-71
2023/09/28 13:17:30;;;;;;;6.32;5.72;;;;;;;24.68;42.05;95318.00;6043718;28;109028;-69
2023/09/28 13:20:36;;;;;;;8.68;6.30;;;;;;;24.64;42.04;95319.72;6049340;28;109379;-69
2023/09/28 13:23:39;;;;;;;7.00;6.30;;;;;;;24.68;41.80;95319.91;6029136;28;109462;-70
2023/09/28 13:26:44;;;;;;;7.17;6.10;;;;;;;24.68;42.14;95318.00;6037549;28;109278;-70
2023/09/28 13:29:48;;;;;;;8.10;6.15;;;;;;;24.67;42.19;95318.28;6040248;28;108950;-70
2023/09/28 13:32:52;;;;;;;7.47;6.57;;;;;;;24.63;42.17;95318.16;6040782;28;108945;-71
2023/09/28 13:35:55;;;;;;;6.68;5.97;;;;;;;24.63;42.17;95322.72;6029259;28;109102;-71
2023/09/28 13:38:59;;;;;;;6.90;6.20;;;;;;;24.65;42.07;95325.84;6041892;28;109983;-71
2023/09/28 13:42:04;;;;;;;8.93;6.00;;;;;;;24.65;42.16;95331.22;6039354;28;109032;-71
2023/09/28 13:45:10;;;;;;;7.88;5.95;;;;;;;24.64;42.16;95318.94;6044976;28;108942;-71
2023/09/28 13:48:13;;;;;;;6.70;6.00;;;;;;;24.64;42.44;95318.94;6033370;28;110024;-71
2023/09/28 13:51:16;;;;;;;7.82;6.13;;;;;;;24.64;42.18;95321.59;6040640;28;108976;-69
2023/09/28 13:54:20;;;;;;;8.32;6.65;;;;;;;24.67;42.47;95318.28;6039105;28;108942;-69
2023/09/28 13:57:24;;;;;;;7.00;6.30;;;;;;;24.69;42.21;95319.56;6034557;28;109372;-69
2023/09/28 14:00:38;;;;;;;6.70;6.00;;;;;;;24.69;42.39;95321.47;6035067;28;109093;-70
2023/09/28 14:03:41;;;;;;;8.70;6.88;;;;;;;24.66;42.25;95319.41;6034569;28;109026;-69
2023/09/28 14:06:45;;;;;;;7.80;6.65;;;;;;;24.64;43.19;95317.03;6039002;28;108907;-70
2023/09/28 14:09:48;;;;;;;7.22;6.50;;;;;;;24.65;42.35;95317.81;6027936;28;109237;-69
2023/09/28 14:12:54;;;;;;;7.30;6.50;;;;;;;24.65;42.29;95321.28;6039176;28;108624;-69
2023/09/28 14:15:58;;;;;;;7.45;6.65;;;;;;;24.58;41.97;95322.88;6040360;28;108960;-69